Time;durP1;ratioP1;P1;durP2;ratioP2;P2;SDS_P1;SDS_P2;PMS_P1;PMS_P2;Temp;Humidity;BMP_temperature;BMP_pressure;BME280_temperature;BME280_humidity;BME280_pressure;Samples;Min_cycle;Max_cycle;Signal;HPM_P1;HPM_P2
2023/11/07 00:00:10;;;;;;;3.50;0.60;;;7.70;99.90;;;;;;4852852;29;20037;-84
2023/11/07 00:02:36;;;;;;;3.63;0.50;;;7.70;99.90;;;;;;4877399;28;20056;-89
2023/11/07 00:05:02;;;;;;;3.88;0.50;;;7.70;99.90;;;;;;4856619;29;20120;-90
2023/11/07 00:07:28;;;;;;;3.50;0.50;;;7.80;99.90;;;;;;4866776;29;20052;-87
2023/11/07 00:09:54;;;;;;;2.45;0.38;;;7.80;99.90;;;;;;4839537;29;20045;-85
2023/11/07 00:12:20;;;;;;;2.33;0.50;;;7.70;99.90;;;;;;4866594;28;20112;-84
2023/11/07 00:14:46;;;;;;;1.63;0.40;;;7.70;99.90;;;;;;4848752;29;20486;-84
2023/11/07 00:17:12;;;;;;;2.92;0.60;;;7.70;99.90;;;;;;4869476;28;20207;-84
2023/11/07 00:19:38;;;;;;;2.25;0.40;;;7.60;99.90;;;;;;4856147;29;20510;-85
2023/11/07 00:22:04;;;;;;;4.90;0.60;;;7.60;99.90;;;;;;4854426;29;20049;-92
2023/11/07 00:24:30;;;;;;;3.13;0.40;;;7.70;99.90;;;;;;4894610;28;20099;-90
2023/11/07 00:26:57;;;;;;;3.55;0.50;;;7.60;99.90;;;;;;4856038;29;20061;-88
2023/11/07 00:29:25;;;;;;;3.10;0.57;;;7.60;99.90;;;;;;4883603;28;20112;-89
2023/11/07 00:31:53;;;;;;;3.45;0.50;;;7.60;99.90;;;;;;4850425;29;20117;-88
2023/11/07 00:34:20;;;;;;;1.80;0.47;;;7.50;99.90;;;;;;4854441;29;20052;-90
2023/11/07 00:36:50;;;;;;;1.65;0.43;;;7.50;99.90;;;;;;4865025;29;20037;-93
2023/11/07 00:39:16;;;;;;;1.70;0.43;;;7.60;99.90;;;;;;4880551;28;20085;-86
2023/11/07 00:41:43;;;;;;;3.60;0.47;;;7.60;99.90;;;;;;4851270;29;20461;-89
2023/11/07 00:44:09;;;;;;;2.92;0.50;;;7.60;99.90;;;;;;4856295;29;20398;-90
2023/11/07 00:46:35;;;;;;;2.55;0.47;;;7.60;99.90;;;;;;4931565;29;20490;-89
2023/11/07 00:49:01;;;;;;;1.17;0.40;;;7.60;99.90;;;;;;4854669;29;20105;-86
2023/11/07 00:51:27;;;;;;;2.38;0.30;;;7.60;99.90;;;;;;4835203;29;20030;-86
2023/11/07 00:53:53;;;;;;;3.97;0.30;;;7.60;99.90;;;;;;4869617;23;20057;-88
2023/11/07 00:56:18;;;;;;;1.83;0.30;;;7.60;99.90;;;;;;4852388;29;20057;-86
2023/11/07 00:58:47;;;;;;;3.05;0.38;;;7.60;99.90;;;;;;4885975;28;20112;-86
2023/11/07 01:01:16;;;;;;;1.27;0.38;;;7.60;99.90;;;;;;4873429;28;20029;-91
2023/11/07 01:03:43;;;;;;;2.92;0.40;;;7.60;99.90;;;;;;4866965;28;20056;-90
2023/11/07 01:06:09;;;;;;;2.65;0.30;;;7.50;99.90;;;;;;4894810;28;20029;-90
2023/11/07 01:08:35;;;;;;;3.25;0.40;;;7.50;99.90;;;;;;4863594;29;20164;-90
2023/11/07 01:11:01;;;;;;;1.70;0.30;;;7.60;99.90;;;;;;4896796;28;20048;-89
2023/11/07 01:13:27;;;;;;;2.88;0.47;;;7.50;99.90;;;;;;4878168;28;20040;-85
2023/11/07 01:15:53;;;;;;;2.90;0.40;;;7.50;99.90;;;;;;4935926;28;20029;-85
2023/11/07 01:18:18;;;;;;;1.55;0.30;;;7.50;99.90;;;;;;4855535;29;20161;-84
2023/11/07 01:20:45;;;;;;;1.25;0.32;;;7.50;99.90;;;;;;4897418;28;20112;-87
2023/11/07 01:23:12;;;;;;;3.78;0.40;;;7.50;99.90;;;;;;4866094;29;20104;-89
2023/11/07 01:25:39;;;;;;;2.03;0.68;;;7.40;99.90;;;;;;4879164;29;20405;-87
2023/11/07 01:28:05;;;;;;;1.25;0.30;;;7.40;99.90;;;;;;4938606;28;20060;-85
2023/11/07 01:30:32;;;;;;;2.78;0.40;;;7.40;99.90;;;;;;4866162;29;20063;-88
2023/11/07 01:32:57;;;;;;;2.20;0.22;;;7.60;99.90;;;;;;4856408;28;20029;-88
2023/11/07 01:35:24;;;;;;;3.28;0.40;;;7.60;99.90;;;;;;4853154;29;20366;-87
2023/11/07 01:37:51;;;;;;;1.45;0.73;;;7.60;99.90;;;;;;4889224;28;20442;-90
2023/11/07 01:40:17;;;;;;;3.00;0.50;;;7.60;99.90;;;;;;4880610;28;20033;-88
2023/11/07 01:42:50;;;;;;;3.25;0.40;;;7.60;99.90;;;;;;4875929;28;20037;-87
2023/11/07 01:45:17;;;;;;;2.03;0.32;;;7.60;99.90;;;;;;4863609;28;20405;-85
2023/11/07 01:47:44;;;;;;;2.53;0.30;;;7.60;99.90;;;;;;4897310;28;20071;-91
2023/11/07 01:50:11;;;;;;;2.88;0.40;;;7.60;99.90;;;;;;4934482;28;20033;-92
2023/11/07 01:52:38;;;;;;;3.15;0.40;;;7.60;99.90;;;;;;4864767;29;20108;-94
2023/11/07 01:55:11;;;;;;;2.08;0.40;;;7.50;99.90;;;;;;4937642;28;20049;-90
2023/11/07 01:57:40;;;;;;;2.55;0.40;;;7.60;99.90;;;;;;4895552;28;20039;-85
2023/11/07 02:00:11;;;;;;;1.00;0.40;;;7.50;99.90;;;;;;4873831;28;20044;-85
2023/11/07 02:02:42;;;;;;;1.77;0.30;;;7.50;99.90;;;;;;4876707;29;20041;-86
2023/11/07 02:05:09;;;;;;;1.58;0.30;;;7.50;99.90;;;;;;4932171;28;20084;-83
2023/11/07 02:07:39;;;;;;;2.38;0.60;;;7.50;99.90;;;;;;4932670;28;20470;-84
2023/11/07 02:10:11;;;;;;;3.40;0.47;;;7.50;99.90;;;;;;4865992;28;20025;-85
2023/11/07 02:12:37;;;;;;;1.95;0.30;;;7.60;99.90;;;;;;4868478;28;20037;-87
2023/11/07 02:15:22;;;;;;;1.45;0.30;;;7.50;99.90;;;;;;4937137;28;20038;-85
2023/11/07 02:17:49;;;;;;;2.83;0.40;;;7.60;99.90;;;;;;4898395;28;20076;-84
2023/11/07 02:20:16;;;;;;;3.22;0.50;;;7.50;99.90;;;;;;4913500;28;20582;-84
2023/11/07 02:22:53;;;;;;;4.90;0.30;;;7.50;99.90;;;;;;4852207;29;20064;-86
2023/11/07 02:25:19;;;;;;;2.05;0.30;;;7.50;99.90;;;;;;4860193;29;20076;-84
2023/11/07 02:27:45;;;;;;;1.38;0.20;;;7.40;99.90;;;;;;4888086;28;20068;-85
2023/11/07 02:30:12;;;;;;;2.88;0.20;;;7.50;99.90;;;;;;4850622;29;20477;-85
2023/11/07 02:32:42;;;;;;;2.60;0.25;;;7.60;99.90;;;;;;4866506;29;20437;-85
2023/11/07 02:35:08;;;;;;;;;;;7.50;99.90;;;;;;4854613;29;20029;-86
2023/11/07 02:37:34;;;;;;;1.52;0.28;;;7.50;99.90;;;;;;4849950;29;19919;-85
2023/11/07 02:40:00;;;;;;;2.50;0.30;;;7.50;99.90;;;;;;4866309;29;20029;-85
2023/11/07 02:42:30;;;;;;;5.13;0.40;;;7.50;99.90;;;;;;4849581;29;20120;-89
2023/11/07 02:44:59;;;;;;;2.40;0.40;;;7.50;99.90;;;;;;4865192;28;20033;-84
2023/11/07 02:47:25;;;;;;;1.05;0.20;;;7.50;99.90;;;;;;4882779;28;20029;-85
2023/11/07 02:49:51;;;;;;;1.42;0.20;;;7.50;99.90;;;;;;4852891;29;20033;-83
2023/11/07 02:52:18;;;;;;;2.13;0.30;;;7.50;99.90;;;;;;4851055;29;20033;-85
2023/11/07 02:54:45;;;;;;;1.10;0.30;;;7.50;99.90;;;;;;4888228;28;20657;-84
2023/11/07 02:57:11;;;;;;;1.67;0.30;;;7.40;99.90;;;;;;4852846;29;20508;-84
2023/11/07 02:59:36;;;;;;;4.22;0.70;;;7.50;99.90;;;;;;4865621;29;20112;-86
2023/11/07 03:02:03;;;;;;;4.03;0.32;;;7.50;99.90;;;;;;4867085;28;20104;-84
2023/11/07 03:04:29;;;;;;;3.17;0.30;;;7.50;99.90;;;;;;4885825;28;20049;-86
2023/11/07 03:06:55;;;;;;;1.98;0.30;;;7.40;99.90;;;;;;4860329;28;20154;-85
2023/11/07 03:09:21;;;;;;;2.90;0.30;;;7.40;99.90;;;;;;4898134;28;20263;-85
2023/11/07 03:11:46;;;;;;;2.30;0.30;;;7.60;99.90;;;;;;4892807;28;20116;-84
2023/11/07 03:14:12;;;;;;;2.33;0.30;;;7.50;99.90;;;;;;4868009;29;20036;-86
2023/11/07 03:16:38;;;;;;;1.60;0.30;;;7.60;99.90;;;;;;4879343;28;20034;-86
2023/11/07 03:19:07;;;;;;;2.83;0.30;;;7.60;99.90;;;;;;4863528;28;20024;-87
2023/11/07 03:21:34;;;;;;;3.50;0.40;;;7.60;99.90;;;;;;4865933;28;20030;-84
2023/11/07 03:24:00;;;;;;;1.90;0.25;;;7.70;99.90;;;;;;4854775;29;20125;-83
2023/11/07 03:26:26;;;;;;;2.42;0.30;;;7.70;99.90;;;;;;4850407;29;20033;-85
2023/11/07 03:28:52;;;;;;;2.90;0.32;;;7.80;99.90;;;;;;4864078;29;20393;-85
2023/11/07 03:31:19;;;;;;;1.92;0.30;;;7.70;99.90;;;;;;4875203;28;20050;-85
2023/11/07 03:33:44;;;;;;;2.55;0.30;;;7.70;99.90;;;;;;4886500;28;20115;-88
2023/11/07 03:36:10;;;;;;;2.88;0.50;;;7.80;99.90;;;;;;4937316;28;20060;-90
2023/11/07 03:38:38;;;;;;;1.52;0.40;;;7.90;99.90;;;;;;4849245;29;20033;-85
2023/11/07 03:41:04;;;;;;;3.83;0.40;;;7.90;99.90;;;;;;4904797;28;20052;-84
2023/11/07 03:43:33;;;;;;;3.40;0.52;;;8.00;99.90;;;;;;4864646;28;20041;-85
2023/11/07 03:45:59;;;;;;;2.08;0.35;;;8.00;99.90;;;;;;4861607;29;20157;-86
2023/11/07 03:48:25;;;;;;;3.25;0.40;;;8.00;99.90;;;;;;4874792;28;20031;-90
2023/11/07 03:50:53;;;;;;;2.80;0.40;;;8.00;99.90;;;;;;4877790;28;20022;-83
2023/11/07 03:53:19;;;;;;;4.05;0.50;;;8.20;99.90;;;;;;4868237;28;20084;-85
2023/11/07 03:55:45;;;;;;;4.70;0.50;;;8.10;99.90;;;;;;4880914;28;20532;-91
2023/11/07 03:58:11;;;;;;;2.67;0.47;;;8.10;99.90;;;;;;4855942;28;20034;-85
2023/11/07 04:00:36;;;;;;;1.95;0.40;;;8.10;99.90;;;;;;4855432;29;20116;-86
2023/11/07 04:03:03;;;;;;;2.83;0.47;;;7.90;99.90;;;;;;4872009;28;20497;-85
2023/11/07 04:05:29;;;;;;;2.55;0.50;;;7.90;99.90;;;;;;4855107;29;20393;-86
2023/11/07 04:07:57;;;;;;;2.72;0.68;;;7.90;99.90;;;;;;4889560;28;20026;-90
2023/11/07 04:10:24;;;;;;;5.05;1.23;;;8.00;99.90;;;;;;4881556;29;20033;-84
2023/11/07 04:12:51;;;;;;;3.20;0.70;;;8.00;99.90;;;;;;4937556;28;20032;-89
2023/11/07 04:15:17;;;;;;;4.13;0.68;;;8.00;99.90;;;;;;4855597;29;20033;-86
2023/11/07 04:17:42;;;;;;;3.30;0.70;;;8.00;99.90;;;;;;4889583;28;20041;-87
2023/11/07 04:20:09;;;;;;;3.60;0.90;;;8.00;99.90;;;;;;4855978;28;20029;-90
2023/11/07 04:22:39;;;;;;;3.58;0.50;;;8.00;99.90;;;;;;4863321;29;20069;-88
2023/11/07 04:25:06;;;;;;;3.00;0.43;;;7.90;99.90;;;;;;4851010;29;20043;-90
2023/11/07 04:27:34;;;;;;;2.97;0.45;;;7.90;99.90;;;;;;4868244;28;20053;-86
2023/11/07 04:30:01;;;;;;;3.22;0.60;;;7.90;99.90;;;;;;4852102;29;20038;-83
2023/11/07 04:32:26;;;;;;;2.88;0.60;;;8.00;99.90;;;;;;4898602;28;20040;-89
2023/11/07 04:34:52;;;;;;;3.00;0.50;;;8.00;99.90;;;;;;4853795;29;20127;-86
2023/11/07 04:37:18;;;;;;;4.45;0.90;;;8.00;99.90;;;;;;4880213;28;20025;-88
2023/11/07 04:39:44;;;;;;;5.07;0.77;;;8.00;99.90;;;;;;4936655;28;20137;-84
2023/11/07 04:42:09;;;;;;;2.63;0.70;;;8.00;99.90;;;;;;4859178;29;20029;-92
2023/11/07 04:44:35;;;;;;;5.72;0.70;;;8.00;99.90;;;;;;4864599;28;20491;-86
2023/11/07 04:47:05;;;;;;;2.75;0.70;;;8.10;99.90;;;;;;4884963;28;20057;-92
2023/11/07 04:49:31;;;;;;;4.38;1.52;;;8.00;99.90;;;;;;4882287;28;20029;-87
2023/11/07 04:51:58;;;;;;;2.47;0.55;;;8.00;99.90;;;;;;4882486;29;20051;-89
2023/11/07 04:54:27;;;;;;;2.30;0.65;;;7.90;99.90;;;;;;4866134;29;20109;-94
2023/11/07 04:56:54;;;;;;;5.13;0.60;;;7.90;99.90;;;;;;4879452;28;20513;-89
2023/11/07 04:59:22;;;;;;;4.90;0.68;;;7.90;99.90;;;;;;4867734;28;20084;-88
2023/11/07 05:01:48;;;;;;;3.53;0.80;;;8.00;99.90;;;;;;4881826;28;20547;-86
2023/11/07 05:04:14;;;;;;;3.92;0.75;;;8.00;99.90;;;;;;4881286;28;20045;-91
2023/11/07 05:06:41;;;;;;;4.30;0.60;;;8.00;99.90;;;;;;4885715;28;20363;-90
2023/11/07 05:09:08;;;;;;;2.55;0.50;;;8.00;99.90;;;;;;4933833;28;20040;-90
2023/11/07 05:11:36;;;;;;;3.75;1.02;;;8.00;99.90;;;;;;4865583;29;20504;-83
2023/11/07 05:14:02;;;;;;;4.50;1.00;;;8.10;99.90;;;;;;4894617;28;20555;-90
2023/11/07 05:16:28;;;;;;;2.55;0.60;;;8.10;99.90;;;;;;4872207;29;20080;-86
2023/11/07 05:18:54;;;;;;;3.83;1.00;;;8.10;99.90;;;;;;4884201;28;20037;-86
2023/11/07 05:21:19;;;;;;;3.05;0.90;;;8.10;99.90;;;;;;4874818;28;20029;-89
2023/11/07 05:23:45;;;;;;;3.33;1.35;;;8.10;99.90;;;;;;4880411;28;20695;-87
2023/11/07 05:26:11;;;;;;;3.28;1.00;;;8.10;99.90;;;;;;4854460;29;20108;-85
2023/11/07 05:28:37;;;;;;;4.00;0.85;;;8.10;99.90;;;;;;4935486;28;20087;-90
2023/11/07 05:31:04;;;;;;;3.35;0.90;;;8.10;99.90;;;;;;4856397;29;20064;-91
2023/11/07 05:33:30;;;;;;;3.22;0.90;;;8.10;99.90;;;;;;4856215;29;20104;-87
2023/11/07 05:35:56;;;;;;;5.47;1.35;;;8.10;99.90;;;;;;4854606;29;20025;-90
2023/11/07 05:38:23;;;;;;;5.35;1.45;;;8.10;99.90;;;;;;4867743;29;20378;-91
2023/11/07 05:40:49;;;;;;;5.63;1.35;;;8.10;99.90;;;;;;4868483;29;20111;-85
2023/11/07 05:43:14;;;;;;;4.25;1.33;;;8.10;99.90;;;;;;4894630;28;20037;-86
2023/11/07 05:45:40;;;;;;;3.30;0.75;;;8.10;99.90;;;;;;4938543;28;20406;-88
2023/11/07 05:48:06;;;;;;;3.22;0.88;;;8.10;99.90;;;;;;4864599;28;20477;-87
2023/11/07 05:50:31;;;;;;;3.22;1.00;;;8.10;99.90;;;;;;4865615;28;20044;-87
2023/11/07 05:52:57;;;;;;;2.90;0.90;;;8.10;99.90;;;;;;4898086;28;20033;-85
2023/11/07 05:55:23;;;;;;;2.67;0.70;;;8.20;99.90;;;;;;4867920;29;20551;-87
2023/11/07 05:57:48;;;;;;;5.57;1.02;;;8.10;99.90;;;;;;4856353;29;20056;-87
2023/11/07 06:00:15;;;;;;;3.22;1.10;;;8.20;99.90;;;;;;4869075;29;20064;-90
2023/11/07 06:02:41;;;;;;;4.80;1.13;;;8.20;99.90;;;;;;4868209;29;20080;-87
2023/11/07 06:05:07;;;;;;;4.88;1.70;;;8.20;99.90;;;;;;4882117;28;20453;-87
2023/11/07 06:07:33;;;;;;;5.75;1.90;;;8.20;99.90;;;;;;4866320;29;20025;-85
2023/11/07 06:10:00;;;;;;;9.95;3.85;;;8.20;99.90;;;;;;4878622;28;20040;-85
2023/11/07 06:12:26;;;;;;;3.65;1.67;;;8.20;99.90;;;;;;4867144;29;20053;-84
2023/11/07 06:14:52;;;;;;;4.53;1.80;;;8.20;99.90;;;;;;4868059;29;20076;-84
2023/11/07 06:17:18;;;;;;;5.47;1.48;;;8.20;99.90;;;;;;4881170;28;20040;-84
2023/11/07 06:19:46;;;;;;;4.07;2.08;;;8.20;99.90;;;;;;4855677;29;20037;-86
2023/11/07 06:22:11;;;;;;;2.60;1.05;;;8.20;99.90;;;;;;4854408;29;20075;-85
2023/11/07 06:24:37;;;;;;;8.50;3.15;;;8.20;99.90;;;;;;4931669;28;20048;-86
2023/11/07 06:27:03;;;;;;;4.28;1.85;;;8.20;99.90;;;;;;4935646;28;20095;-86
2023/11/07 06:29:28;;;;;;;2.92;1.40;;;8.20;99.90;;;;;;4854763;28;20038;-86
2023/11/07 06:31:54;;;;;;;5.20;1.00;;;8.20;99.90;;;;;;4849428;28;20029;-85
2023/11/07 06:34:20;;;;;;;2.33;1.10;;;8.20;99.90;;;;;;4864969;28;20083;-85
2023/11/07 06:36:48;;;;;;;3.35;1.02;;;8.30;99.90;;;;;;4854965;29;20465;-86
2023/11/07 06:39:15;;;;;;;2.10;1.33;;;8.30;99.90;;;;;;4859998;29;20036;-85
2023/11/07 06:41:41;;;;;;;3.20;1.20;;;8.30;99.90;;;;;;4877919;28;20042;-84
2023/11/07 06:44:10;;;;;;;3.72;1.52;;;8.30;99.90;;;;;;4885832;28;20041;-88
2023/11/07 06:46:39;;;;;;;3.35;1.60;;;8.30;99.90;;;;;;4852675;29;20037;-86
2023/11/07 06:49:05;;;;;;;2.83;1.30;;;8.30;99.90;;;;;;4900365;28;20411;-84
2023/11/07 06:51:35;;;;;;;4.93;1.75;;;8.30;99.90;;;;;;4849501;29;20041;-86
2023/11/07 06:54:04;;;;;;;2.97;1.23;;;8.30;99.90;;;;;;4864112;28;20602;-84
2023/11/07 06:56:32;;;;;;;5.07;1.75;;;8.30;99.90;;;;;;4854563;29;20033;-84
2023/11/07 06:58:58;;;;;;;4.55;1.10;;;8.40;99.90;;;;;;4870400;28;20320;-84
2023/11/07 07:01:25;;;;;;;3.38;1.38;;;8.40;99.90;;;;;;4884097;28;20057;-85
2023/11/07 07:03:53;;;;;;;4.28;1.55;;;8.40;99.90;;;;;;4860485;28;20433;-84
2023/11/07 07:06:25;;;;;;;2.83;1.15;;;8.40;99.90;;;;;;4882474;29;20040;-86
2023/11/07 07:08:52;;;;;;;3.05;1.63;;;8.40;99.90;;;;;;4865605;29;20128;-86
2023/11/07 07:11:20;;;;;;;4.20;1.20;;;8.40;99.90;;;;;;4879898;28;20499;-84
2023/11/07 07:13:48;;;;;;;3.15;1.00;;;8.40;99.90;;;;;;4866239;28;20043;-85
2023/11/07 07:16:16;;;;;;;3.22;1.48;;;8.40;99.90;;;;;;4855528;29;20056;-83
2023/11/07 07:18:44;;;;;;;2.97;1.27;;;8.40;99.90;;;;;;4868495;28;20052;-84
2023/11/07 07:21:13;;;;;;;5.57;1.52;;;8.40;99.90;;;;;;4854806;28;20033;-85
2023/11/07 07:23:46;;;;;;;3.80;1.50;;;8.40;99.90;;;;;;4867926;28;20127;-84
2023/11/07 07:26:14;;;;;;;2.58;0.82;;;8.40;99.90;;;;;;4866671;28;20033;-83
2023/11/07 07:28:40;;;;;;;3.17;1.23;;;8.50;99.90;;;;;;4868127;29;20404;-83
2023/11/07 07:31:06;;;;;;;4.50;1.40;;;8.50;99.90;;;;;;4886459;29;20128;-83
2023/11/07 07:33:37;;;;;;;3.15;1.00;;;8.50;99.90;;;;;;4867406;28;20040;-84
2023/11/07 07:36:04;;;;;;;4.00;1.00;;;8.50;99.90;;;;;;4885826;29;20033;-83
2023/11/07 07:38:38;;;;;;;3.63;1.10;;;8.50;99.90;;;;;;4878326;28;20557;-87
2023/11/07 07:41:06;;;;;;;3.53;1.13;;;8.50;99.90;;;;;;4855724;29;20046;-84
2023/11/07 07:43:33;;;;;;;2.30;0.82;;;8.50;99.90;;;;;;4850794;29;20041;-86
2023/11/07 07:45:59;;;;;;;4.95;1.23;;;8.50;99.90;;;;;;4880539;28;20349;-84
2023/11/07 07:48:24;;;;;;;5.82;2.08;;;8.60;99.90;;;;;;4853851;29;20418;-84
2023/11/07 07:50:51;;;;;;;3.22;1.10;;;8.50;99.90;;;;;;4866428;28;20071;-84
2023/11/07 07:53:20;;;;;;;2.92;1.02;;;8.50;99.90;;;;;;4883858;28;20053;-85
2023/11/07 07:55:50;;;;;;;3.80;1.05;;;8.60;99.90;;;;;;4854591;29;20060;-85
2023/11/07 07:58:19;;;;;;;2.28;0.80;;;8.60;99.90;;;;;;4896621;28;20038;-83
2023/11/07 08:00:49;;;;;;;3.72;1.15;;;8.60;99.90;;;;;;4849837;29;20037;-85
2023/11/07 08:03:16;;;;;;;;;;;8.60;99.90;;;;;;4866514;28;20045;-84
2023/11/07 08:05:44;;;;;;;5.43;1.45;;;8.60;99.90;;;;;;4879162;28;19951;-84
2023/11/07 08:08:11;;;;;;;2.95;1.05;;;8.70;99.90;;;;;;4866340;28;20430;-85
2023/11/07 08:10:37;;;;;;;2.15;0.70;;;8.70;99.90;;;;;;4852648;29;20032;-86
2023/11/07 08:13:06;;;;;;;3.67;0.80;;;8.70;99.90;;;;;;4890991;28;20034;-87
2023/11/07 08:15:34;;;;;;;4.45;1.52;;;8.80;99.90;;;;;;4933112;28;20041;-83
2023/11/07 08:18:05;;;;;;;3.05;0.93;;;8.80;99.90;;;;;;4852361;29;20481;-84
2023/11/07 08:20:35;;;;;;;4.10;0.80;;;8.80;99.90;;;;;;4895163;28;20039;-85
2023/11/07 08:23:01;;;;;;;1.92;0.60;;;8.90;99.90;;;;;;4931264;28;20092;-85
2023/11/07 08:25:31;;;;;;;2.30;0.57;;;9.00;99.90;;;;;;4851763;29;20038;-85
2023/11/07 08:27:58;;;;;;;3.20;1.00;;;9.10;99.90;;;;;;4848132;28;20195;-82
2023/11/07 08:30:24;;;;;;;2.08;1.17;;;9.00;99.90;;;;;;4865990;28;20037;-83
2023/11/07 08:32:51;;;;;;;3.55;1.00;;;9.10;99.90;;;;;;4858405;29;20122;-83
2023/11/07 08:35:18;;;;;;;4.03;1.45;;;9.10;99.90;;;;;;4867128;29;20067;-82
2023/11/07 08:37:49;;;;;;;3.45;1.00;;;9.10;99.90;;;;;;4886689;29;20178;-84
2023/11/07 08:40:17;;;;;;;2.70;0.90;;;9.10;99.90;;;;;;4882391;29;20036;-83
2023/11/07 08:42:48;;;;;;;2.33;0.90;;;9.10;99.90;;;;;;4857813;28;20045;-83
2023/11/07 08:45:21;;;;;;;2.33;0.90;;;9.10;99.90;;;;;;4865647;28;20045;-84
2023/11/07 08:47:51;;;;;;;3.55;1.00;;;9.20;99.90;;;;;;4867630;29;20093;-84
2023/11/07 08:50:18;;;;;;;2.17;0.98;;;9.20;99.90;;;;;;4858525;28;20037;-83
2023/11/07 08:52:46;;;;;;;3.45;1.15;;;9.10;99.90;;;;;;4865938;28;20036;-83
2023/11/07 08:55:13;;;;;;;4.32;0.98;;;9.10;99.90;;;;;;4864173;28;20041;-83
2023/11/07 08:57:39;;;;;;;3.22;1.08;;;9.20;99.90;;;;;;4867278;28;20056;-85
2023/11/07 09:00:12;;;;;;;3.10;1.30;;;9.30;99.90;;;;;;4871097;29;20478;-83
2023/11/07 09:02:41;;;;;;;3.97;1.15;;;9.40;99.90;;;;;;4864450;28;20131;-85
2023/11/07 09:05:07;;;;;;;4.25;0.80;;;9.30;99.90;;;;;;4863828;28;20049;-86
2023/11/07 09:07:37;;;;;;;2.65;0.60;;;9.40;99.90;;;;;;4866352;29;20029;-87
2023/11/07 09:10:04;;;;;;;3.63;0.88;;;9.60;99.90;;;;;;4863847;28;20488;-83
2023/11/07 09:12:30;;;;;;;3.72;1.30;;;9.50;99.90;;;;;;4853627;28;20029;-86
2023/11/07 09:14:56;;;;;;;3.63;1.35;;;9.50;99.90;;;;;;4851250;28;20041;-84
2023/11/07 09:17:22;;;;;;;5.10;1.00;;;9.50;99.90;;;;;;4852189;28;20148;-83
2023/11/07 09:19:48;;;;;;;4.63;1.65;;;9.50;99.90;;;;;;4853107;29;20037;-85
2023/11/07 09:22:13;;;;;;;5.03;1.42;;;9.50;99.90;;;;;;4861768;29;20511;-85
2023/11/07 09:24:39;;;;;;;5.03;1.40;;;9.70;99.90;;;;;;4851033;28;20061;-84
2023/11/07 09:27:07;;;;;;;3.22;1.08;;;9.70;99.90;;;;;;4849946;28;20072;-83
2023/11/07 09:29:39;;;;;;;2.83;0.80;;;9.70;99.90;;;;;;4929590;28;20473;-84
2023/11/07 09:32:06;;;;;;;3.53;1.10;;;9.70;99.90;;;;;;4850747;28;20033;-83
2023/11/07 09:34:32;;;;;;;5.28;1.25;;;9.60;99.90;;;;;;4851310;28;20044;-84
2023/11/07 09:37:01;;;;;;;5.30;0.95;;;9.60;99.90;;;;;;4877614;28;20041;-85
2023/11/07 09:39:26;;;;;;;1.98;0.80;;;9.70;99.90;;;;;;4862591;28;20484;-84
2023/11/07 09:41:52;;;;;;;3.25;0.88;;;9.70;99.90;;;;;;4872686;28;20067;-83
2023/11/07 09:44:18;;;;;;;3.40;0.60;;;9.80;99.90;;;;;;4861657;29;20421;-83
2023/11/07 09:46:47;;;;;;;4.40;0.88;;;9.90;99.90;;;;;;4850102;28;20396;-84
2023/11/07 09:49:13;;;;;;;2.92;0.70;;;10.10;99.90;;;;;;4848075;29;20429;-86
2023/11/07 09:51:39;;;;;;;2.83;1.00;;;10.40;99.90;;;;;;4850922;29;20048;-85
2023/11/07 09:54:08;;;;;;;6.97;1.88;;;10.60;99.90;;;;;;4852229;28;20145;-86
2023/11/07 09:56:46;;;;;;;4.72;1.63;;;10.70;99.90;;;;;;4863172;29;20172;-85
2023/11/07 09:59:59;;;;;;;2.70;0.90;;;10.70;99.90;;;;;;4863224;29;20038;-88
2023/11/07 10:02:26;;;;;;;4.43;1.38;;;10.70;99.90;;;;;;4862478;29;20128;-85
2023/11/07 10:04:52;;;;;;;2.30;0.98;;;10.50;99.90;;;;;;4862667;28;20438;-86
2023/11/07 10:07:18;;;;;;;2.42;0.80;;;10.50;99.90;;;;;;4856859;29;20112;-85
2023/11/07 10:09:44;;;;;;;4.10;0.70;;;10.60;99.90;;;;;;4859321;28;21347;-85
2023/11/07 10:12:18;;;;;;;2.45;0.80;;;10.70;99.90;;;;;;4879058;28;20053;-85
2023/11/07 10:14:43;;;;;;;2.67;0.80;;;10.70;99.90;;;;;;4927364;28;20037;-85
2023/11/07 10:17:20;;;;;;;3.53;0.70;;;10.70;99.90;;;;;;4849646;28;20083;-86
2023/11/07 10:19:46;;;;;;;3.90;0.98;;;10.70;99.90;;;;;;4879321;28;20597;-85
2023/11/07 10:22:12;;;;;;;4.68;1.00;;;10.70;99.90;;;;;;4878392;28;20033;-86
2023/11/07 10:24:44;;;;;;;2.13;0.80;;;10.60;99.90;;;;;;4864033;28;20466;-84
2023/11/07 10:27:11;;;;;;;2.55;0.60;;;10.70;99.90;;;;;;4843139;29;20027;-84
2023/11/07 10:29:52;;;;;;;2.97;1.30;;;10.80;99.90;;;;;;4882948;28;20037;-85
2023/11/07 10:32:17;;;;;;;2.58;0.90;;;10.90;99.90;;;;;;4858169;28;20037;-83
2023/11/07 10:34:43;;;;;;;4.35;0.80;;;10.90;99.90;;;;;;4868738;28;20045;-85
2023/11/07 10:37:10;;;;;;;3.40;1.00;;;11.00;99.90;;;;;;4850540;29;20069;-85
2023/11/07 10:39:36;;;;;;;3.45;1.17;;;11.20;99.90;;;;;;4862020;29;20452;-86
2023/11/07 10:42:19;;;;;;;3.17;0.63;;;11.30;99.90;;;;;;4867774;28;20037;-83
2023/11/07 10:44:45;;;;;;;5.90;1.10;;;11.30;99.90;;;;;;4849378;28;20586;-83
2023/11/07 10:47:13;;;;;;;3.47;0.90;;;11.20;99.90;;;;;;4861426;28;20568;-82
2023/11/07 10:49:43;;;;;;;3.88;0.90;;;11.10;99.90;;;;;;4860893;29;20332;-82
2023/11/07 10:52:10;;;;;;;3.75;0.70;;;11.10;99.90;;;;;;4861121;28;20440;-83
2023/11/07 10:54:35;;;;;;;4.50;0.95;;;10.90;99.90;;;;;;4864680;28;20119;-83
2023/11/07 10:57:04;;;;;;;2.55;0.85;;;11.20;99.90;;;;;;4875510;28;20029;-82
2023/11/07 10:59:33;;;;;;;2.15;0.50;;;11.40;99.90;;;;;;4862909;28;20041;-85
2023/11/07 11:02:03;;;;;;;2.47;0.50;;;11.50;99.90;;;;;;4852925;28;20057;-83
2023/11/07 11:04:34;;;;;;;1.58;0.52;;;11.60;99.90;;;;;;4865558;28;20048;-84
2023/11/07 11:07:08;;;;;;;2.50;0.60;;;11.80;99.90;;;;;;4862177;29;20029;-82
2023/11/07 11:09:35;;;;;;;3.78;0.40;;;11.80;99.90;;;;;;4854102;29;20052;-83
2023/11/07 11:12:06;;;;;;;2.05;0.40;;;11.90;99.90;;;;;;4864294;28;20519;-84
2023/11/07 11:14:31;;;;;;;3.63;0.73;;;11.90;99.90;;;;;;4863969;28;20029;-83
2023/11/07 11:17:17;;;;;;;5.25;0.50;;;12.00;99.90;;;;;;4887018;28;20073;-84
2023/11/07 11:19:58;;;;;;;1.40;0.50;;;12.00;99.90;;;;;;4861031;29;20041;-82
2023/11/07 11:22:31;;;;;;;2.40;0.75;;;12.00;99.90;;;;;;4844411;29;20081;-83
2023/11/07 11:25:10;;;;;;;2.42;0.60;;;11.80;99.90;;;;;;4861499;28;20069;-83
2023/11/07 11:27:53;;;;;;;4.97;0.90;;;11.70;99.90;;;;;;4876669;28;20037;-83
2023/11/07 11:30:27;;;;;;;2.08;0.50;;;11.50;99.90;;;;;;4849118;29;20040;-83
2023/11/07 11:33:09;;;;;;;4.35;0.88;;;11.30;99.90;;;;;;4846621;29;20032;-81
2023/11/07 11:35:41;;;;;;;2.67;0.40;;;11.20;99.90;;;;;;4875493;28;20037;-83
2023/11/07 11:38:18;;;;;;;1.88;0.30;;;11.50;99.90;;;;;;4845476;29;20112;-83
2023/11/07 11:41:00;;;;;;;2.05;0.40;;;11.50;99.90;;;;;;4873158;28;20037;-85
2023/11/07 11:43:28;;;;;;;1.90;0.40;;;11.70;99.90;;;;;;4859586;29;20033;-83
2023/11/07 11:45:58;;;;;;;1.58;0.30;;;11.50;99.90;;;;;;4858822;28;20040;-82
2023/11/07 11:48:49;;;;;;;1.50;0.32;;;11.20;99.90;;;;;;4868348;28;20109;-85
2023/11/07 11:51:38;;;;;;;1.67;0.30;;;11.00;99.90;;;;;;4859254;29;20049;-89
2023/11/07 11:54:05;;;;;;;1.50;0.40;;;11.10;99.90;;;;;;4857344;29;20049;-86
2023/11/07 11:56:35;;;;;;;2.25;0.50;;;11.10;99.90;;;;;;4860310;28;20059;-83
2023/11/07 11:59:03;;;;;;;3.08;0.40;;;11.40;99.90;;;;;;4883001;28;20564;-86
2023/11/07 12:01:49;;;;;;;2.38;0.30;;;11.50;99.90;;;;;;4852900;29;20446;-85
2023/11/07 12:04:41;;;;;;;1.77;0.30;;;11.90;99.90;;;;;;4848829;29;20509;-87
2023/11/07 12:07:09;;;;;;;1.60;0.25;;;11.80;99.90;;;;;;4865067;28;20124;-86
2023/11/07 12:09:49;;;;;;;2.15;0.50;;;11.90;99.90;;;;;;4875433;28;20116;-87
2023/11/07 12:12:17;;;;;;;2.20;0.32;;;11.90;99.90;;;;;;4845567;29;20026;-84
2023/11/07 12:14:59;;;;;;;2.53;0.30;;;11.70;99.90;;;;;;4871069;28;20390;-91
2023/11/07 12:17:28;;;;;;;1.52;0.30;;;11.70;99.90;;;;;;4855159;29;20062;-84
2023/11/07 12:20:11;;;;;;;1.63;0.30;;;11.60;99.90;;;;;;4847233;29;20427;-88
2023/11/07 12:22:42;;;;;;;1.02;0.20;;;11.80;99.90;;;;;;4845854;29;20041;-84
2023/11/07 12:25:19;;;;;;;2.20;0.28;;;11.90;99.90;;;;;;4859772;28;20080;-86
2023/11/07 12:28:03;;;;;;;2.25;0.30;;;12.00;99.90;;;;;;4851871;29;20064;-86
2023/11/07 12:30:29;;;;;;;1.08;0.28;;;12.00;99.90;;;;;;4844498;29;20084;-84
2023/11/07 12:33:03;;;;;;;2.38;0.30;;;12.30;99.90;;;;;;4857909;29;20387;-84
2023/11/07 12:35:30;;;;;;;2.70;0.30;;;12.40;99.90;;;;;;4874344;28;20076;-84
2023/11/07 12:37:58;;;;;;;4.40;0.30;;;12.50;99.90;;;;;;4859185;29;20078;-85
2023/11/07 12:40:24;;;;;;;1.70;0.38;;;12.20;99.90;;;;;;4875833;28;20034;-83
2023/11/07 12:42:54;;;;;;;1.38;0.30;;;12.20;99.90;;;;;;4875269;29;20524;-89
2023/11/07 12:45:33;;;;;;;1.83;0.30;;;12.10;99.90;;;;;;4857967;29;20056;-90
2023/11/07 12:48:03;;;;;;;4.13;0.40;;;12.00;99.90;;;;;;4873501;28;20034;-88
2023/11/07 12:50:42;;;;;;;1.52;0.30;;;11.90;99.90;;;;;;4850210;29;20038;-86
2023/11/07 12:53:08;;;;;;;1.98;0.28;;;11.90;99.90;;;;;;4873162;28;20193;-85
2023/11/07 12:55:37;;;;;;;3.83;0.50;;;11.70;99.90;;;;;;4875962;28;20067;-84
2023/11/07 12:58:05;;;;;;;1.38;0.30;;;11.50;99.90;;;;;;4887081;28;20074;-83
2023/11/07 13:00:50;;;;;;;1.08;0.25;;;11.50;99.90;;;;;;4856133;29;20131;-87